Time;durP1;ratioP1;P1;durP2;ratioP2;P2;SDS_P1;SDS_P2;PMS_P1;PMS_P2;Temp;Humidity;BMP_temperature;BMP_pressure;BME280_temperature;BME280_humidity;BME280_pressure;Samples;Min_cycle;Max_cycle;Signal;HPM_P1;HPM_P2
2024/02/05 00:00:04;;;;;;;27.73;22.70;;;;;;;8.42;67.74;100151.63;5093239;28;20024;-49
2024/02/05 00:02:30;;;;;;;20.95;15.77;;;;;;;8.40;68.60;100149.13;5092037;28;20421;-49
2024/02/05 00:04:56;;;;;;;20.73;17.60;;;;;;;8.49;68.94;100151.84;5091873;28;20032;-49
2024/02/05 00:07:22;;;;;;;18.38;16.13;;;;;;;8.67;68.79;100144.81;5093078;28;20032;-49
2024/02/05 00:09:48;;;;;;;23.98;17.05;;;;;;;8.75;68.35;100144.88;5093043;28;20036;-49
2024/02/05 00:12:14;;;;;;;21.58;16.25;;;;;;;8.76;68.12;100143.88;5091705;28;20043;-49
2024/02/05 00:14:40;;;;;;;20.38;14.95;;;;;;;8.79;68.54;100137.50;5091567;28;20565;-49
2024/02/05 00:17:06;;;;;;;18.85;15.77;;;;;;;8.80;67.42;100140.00;5092939;28;20024;-49
2024/02/05 00:19:32;;;;;;;22.02;16.77;;;;;;;8.66;67.48;100150.19;5091121;28;20559;-49
2024/02/05 00:21:58;;;;;;;24.17;17.83;;;;;;;8.54;68.09;100136.53;5090937;28;20413;-49
2024/02/05 00:24:24;;;;;;;20.90;16.60;;;;;;;8.56;68.35;100138.00;5091657;28;20483;-49
2024/02/05 00:26:49;;;;;;;19.55;14.40;;;;;;;8.61;67.76;100137.53;5092962;28;20031;-48
2024/02/05 00:29:15;;;;;;;26.05;20.75;;;;;;;8.52;67.61;100136.66;5092663;28;20027;-49
2024/02/05 00:31:41;;;;;;;26.70;18.55;;;;;;;8.50;68.04;100132.56;5091338;28;20084;-49
2024/02/05 00:34:07;;;;;;;25.10;19.58;;;;;;;8.51;68.29;100131.56;5092612;28;20427;-49
2024/02/05 00:36:33;;;;;;;23.38;19.02;;;;;;;8.46;67.95;100134.66;5092480;28;20035;-49
2024/02/05 00:38:59;;;;;;;23.83;19.17;;;;;;;8.43;68.24;100134.97;5092836;28;20393;-49
2024/02/05 00:41:25;;;;;;;22.70;18.92;;;;;;;8.49;68.23;100134.38;5091125;28;20028;-49
2024/02/05 00:43:50;;;;;;;28.13;18.33;;;;;;;8.54;68.29;100129.47;5092446;28;20020;-49
2024/02/05 00:46:23;;;;;;;24.17;20.00;;;;;;;8.53;68.60;100130.47;5090878;28;20039;-50
2024/02/05 00:48:50;;;;;;;25.25;20.45;;;;;;;8.60;68.41;100122.84;5092431;28;20028;-49
2024/02/05 00:51:16;;;;;;;24.10;20.00;;;;;;;8.67;68.14;100123.88;5091173;28;20619;-49
2024/02/05 00:53:41;;;;;;;27.17;19.90;;;;;;;8.62;67.82;100123.50;5091011;28;20107;-49
2024/02/05 00:56:07;;;;;;;27.25;20.73;;;;;;;8.56;67.45;100121.50;5092213;28;20393;-49
2024/02/05 00:58:33;;;;;;;23.88;21.38;;;;;;;8.45;68.22;100121.72;5090922;28;20486;-48
2024/02/05 01:00:58;;;;;;;28.20;21.13;;;;;;;8.39;68.12;100115.25;5092150;28;20023;-49
2024/02/05 01:03:24;;;;;;;28.17;21.92;;;;;;;8.32;68.22;100117.66;5092149;28;20019;-49
2024/02/05 01:05:50;;;;;;;30.35;21.90;;;;;;;8.41;68.38;100110.75;5090801;28;20439;-49
2024/02/05 01:08:15;;;;;;;23.92;19.60;;;;;;;8.53;68.43;100108.69;5092069;28;20111;-49
2024/02/05 01:10:42;;;;;;;27.35;22.48;;;;;;;8.57;68.27;100108.25;5090776;28;20024;-49
2024/02/05 01:13:08;;;;;;;26.70;22.15;;;;;;;8.57;68.12;100102.19;5090916;28;20031;-49
2024/02/05 01:15:35;;;;;;;29.50;23.30;;;;;;;8.53;68.21;100099.06;5091852;28;20031;-49
2024/02/05 01:18:02;;;;;;;25.55;21.85;;;;;;;8.59;68.22;100103.69;5092213;28;20016;-49
2024/02/05 01:20:29;;;;;;;31.25;23.80;;;;;;;8.68;68.30;100094.09;5091880;28;20024;-49
2024/02/05 01:22:54;;;;;;;25.58;22.02;;;;;;;8.74;67.94;100096.09;5090581;28;20028;-49
2024/02/05 01:25:20;;;;;;;27.70;23.50;;;;;;;8.77;67.76;100087.13;5090489;28;20090;-49
2024/02/05 01:27:47;;;;;;;27.40;22.55;;;;;;;8.79;67.96;100095.63;5090581;28;20024;-49
2024/02/05 01:30:16;;;;;;;29.30;20.95;;;;;;;8.84;67.74;100093.38;5090541;28;20024;-49
2024/02/05 01:32:41;;;;;;;25.25;22.52;;;;;;;8.91;67.48;100090.97;5093434;28;20017;-49
2024/02/05 01:35:08;;;;;;;29.25;23.85;;;;;;;8.82;67.18;100084.06;5094706;28;20028;-49
2024/02/05 01:37:35;;;;;;;26.95;22.88;;;;;;;8.63;66.86;100087.69;5095986;28;20024;-47
2024/02/05 01:40:00;;;;;;;29.05;22.95;;;;;;;8.44;67.27;100086.06;5094620;28;20031;-47
2024/02/05 01:42:26;;;;;;;25.77;21.55;;;;;;;8.43;67.94;100087.03;5095866;28;20020;-47
2024/02/05 01:44:53;;;;;;;28.95;23.45;;;;;;;8.38;67.94;100087.47;5095876;28;20074;-47
2024/02/05 01:47:19;;;;;;;27.98;24.17;;;;;;;8.37;68.45;100078.81;5094190;28;20044;-47
2024/02/05 01:49:47;;;;;;;30.08;23.70;;;;;;;8.45;68.86;100085.09;5095790;28;20077;-47
2024/02/05 01:52:18;;;;;;;27.23;22.27;;;;;;;8.38;68.43;100084.84;5095935;28;20066;-47
2024/02/05 01:54:46;;;;;;;29.33;24.38;;;;;;;8.30;68.38;100079.56;5094361;28;20437;-47
2024/02/05 01:57:12;;;;;;;34.08;29.15;;;;;;;8.28;68.93;100084.94;5095629;28;20510;-47
2024/02/05 01:59:38;;;;;;;32.00;25.95;;;;;;;8.25;68.76;100087.88;5095646;28;20016;-47
2024/02/05 02:02:05;;;;;;;29.02;22.25;;;;;;;8.24;68.84;100085.38;5094222;28;20105;-47
2024/02/05 02:04:30;;;;;;;31.52;23.02;;;;;;;8.23;68.85;100081.13;5095749;28;20393;-47
2024/02/05 02:06:57;;;;;;;26.55;22.80;;;;;;;8.16;68.70;100080.91;5095490;28;20032;-47
2024/02/05 02:09:23;;;;;;;27.50;23.20;;;;;;;8.16;68.81;100075.69;5094138;28;20036;-47
2024/02/05 02:11:49;;;;;;;32.30;22.27;;;;;;;8.22;69.12;100079.50;5095428;28;20020;-47
2024/02/05 02:14:14;;;;;;;40.80;32.38;;;;;;;8.33;69.26;100079.25;5095334;28;20085;-47
2024/02/05 02:16:41;;;;;;;33.20;29.60;;;;;;;8.44;69.43;100076.44;5094001;28;20039;-46
2024/02/05 02:19:33;;;;;;;42.97;36.22;;;;;;;8.56;69.15;100075.22;5095249;28;20028;-47
2024/02/05 02:22:13;;;;;;;49.70;41.85;;;;;;;8.52;68.40;100073.88;5093900;28;20509;-47
2024/02/05 02:24:38;;;;;;;46.47;34.83;;;;;;;8.52;68.75;100073.06;5093864;28;20024;-47
2024/02/05 02:27:04;;;;;;;37.10;31.40;;;;;;;8.62;69.30;100067.72;5095074;28;20024;-47
2024/02/05 02:29:30;;;;;;;39.00;33.70;;;;;;;8.67;68.18;100066.31;5095073;28;20486;-47
2024/02/05 02:32:06;;;;;;;34.13;27.20;;;;;;;8.60;67.92;100071.31;5093667;28;20032;-46
2024/02/05 02:34:34;;;;;;;28.15;23.55;;;;;;;8.56;68.42;100064.75;5093652;28;20028;-47
2024/02/05 02:37:08;;;;;;;33.10;24.88;;;;;;;8.57;68.34;100061.16;5093579;28;20040;-47
2024/02/05 02:39:40;;;;;;;28.92;24.60;;;;;;;8.56;68.26;100053.47;5094962;28;20032;-47
2024/02/05 02:42:08;;;;;;;29.80;23.17;;;;;;;8.55;68.65;100063.13;5093619;28;20172;-47
2024/02/05 02:44:36;;;;;;;29.63;21.77;;;;;;;8.52;68.79;100058.16;5092318;28;20060;-47
2024/02/05 02:47:02;;;;;;;26.00;22.50;;;;;;;8.57;68.35;100071.63;5094429;28;20048;-46
2024/02/05 02:49:27;;;;;;;26.20;21.02;;;;;;;8.43;68.68;100061.72;5094952;28;20494;-47
2024/02/05 02:51:55;;;;;;;26.10;22.55;;;;;;;8.45;68.88;100061.53;5094606;28;20116;-47
2024/02/05 02:54:20;;;;;;;25.13;19.85;;;;;;;8.68;69.16;100047.00;5094638;28;20175;-46
2024/02/05 02:56:46;;;;;;;26.50;21.75;;;;;;;8.85;68.45;100057.56;5094409;28;20375;-47
2024/02/05 02:59:12;;;;;;;31.48;25.23;;;;;;;8.89;68.05;100053.66;5093153;28;20030;-47
2024/02/05 03:01:38;;;;;;;28.60;22.02;;;;;;;8.98;67.91;100053.53;5094408;28;20375;-47
2024/02/05 03:04:03;;;;;;;31.92;24.10;;;;;;;9.11;67.63;100050.47;5094314;28;20028;-47
2024/02/05 03:06:31;;;;;;;29.52;20.95;;;;;;;9.13;66.96;100055.56;5092996;28;20085;-47
2024/02/05 03:08:57;;;;;;;26.95;18.98;;;;;;;9.04;66.73;100054.72;5094341;28;20025;-47
2024/02/05 03:11:24;;;;;;;22.33;19.30;;;;;;;8.96;67.25;100050.25;5094219;28;20024;-47
2024/02/05 03:13:49;;;;;;;22.40;20.00;;;;;;;8.89;66.95;100048.41;5094113;28;20020;-47
2024/02/05 03:16:16;;;;;;;107.28;82.88;;;;;;;8.63;66.73;100051.03;5094044;28;20024;-46
2024/02/05 03:18:41;;;;;;;56.88;40.60;;;;;;;8.47;67.44;100059.59;5092758;28;20024;-47
2024/02/05 03:21:07;;;;;;;34.78;28.73;;;;;;;8.49;68.00;100063.72;5094036;28;20028;-47
2024/02/05 03:23:33;;;;;;;21.88;16.60;;;;;;;8.67;68.21;100050.59;5093975;28;20055;-47
2024/02/05 03:25:59;;;;;;;20.95;15.48;;;;;;;8.68;67.70;100056.66;5093938;28;20055;-47
2024/02/05 03:28:26;;;;;;;20.92;15.02;;;;;;;8.57;67.36;100049.84;5093932;28;20069;-47
2024/02/05 03:30:52;;;;;;;22.10;16.17;;;;;;;8.46;67.77;100057.97;5094111;28;20020;-47
2024/02/05 03:33:19;;;;;;;22.42;16.52;;;;;;;8.44;68.23;100054.69;5093790;28;20497;-46
2024/02/05 03:35:44;;;;;;;19.65;15.68;;;;;;;8.42;68.39;100046.97;5093670;28;20024;-46
2024/02/05 03:38:10;;;;;;;20.25;15.57;;;;;;;8.41;68.13;100053.19;5093714;28;20024;-47
2024/02/05 03:40:36;;;;;;;22.27;17.15;;;;;;;8.37;68.20;100044.81;5093635;28;20482;-47
2024/02/05 03:43:02;;;;;;;17.60;15.02;;;;;;;8.30;68.47;100050.78;5093636;28;20042;-47
2024/02/05 03:45:29;;;;;;;16.67;13.93;;;;;;;8.25;68.64;100050.41;5093514;28;20113;-47
2024/02/05 03:47:55;;;;;;;20.42;15.23;;;;;;;8.29;69.01;100051.75;5093256;28;20068;-47
2024/02/05 03:50:21;;;;;;;17.92;13.65;;;;;;;8.37;69.36;100046.56;5093424;28;20071;-46
2024/02/05 03:52:46;;;;;;;22.55;13.25;;;;;;;8.35;68.72;100044.13;5093479;28;20043;-46
2024/02/05 03:55:13;;;;;;;23.40;15.30;;;;;;;8.25;68.89;100040.78;5093024;28;20024;-47
2024/02/05 03:57:56;;;;;;;21.95;14.65;;;;;;;8.23;69.44;100036.66;5092032;28;20126;-47
2024/02/05 04:00:22;;;;;;;23.08;14.60;;;;;;;8.18;69.60;100040.56;5091986;28;20168;-46
2024/02/05 04:02:48;;;;;;;16.20;13.45;;;;;;;8.14;69.06;100038.41;5091929;28;20118;-47
2024/02/05 04:05:14;;;;;;;18.95;11.05;;;;;;;8.00;69.60;100037.94;5091853;28;20482;-46
2024/02/05 04:07:39;;;;;;;15.10;12.68;;;;;;;8.02;70.27;100043.03;5091974;28;20024;-46
2024/02/05 04:10:06;;;;;;;42.40;36.95;;;;;;;8.05;69.80;100045.38;5091741;28;20107;-47
2024/02/05 04:12:33;;;;;;;16.73;13.18;;;;;;;7.97;69.88;100046.09;5093110;28;20032;-47
2024/02/05 04:14:58;;;;;;;13.20;10.05;;;;;;;7.96;70.33;100038.41;5092943;28;20035;-47
2024/02/05 04:17:24;;;;;;;13.73;9.60;;;;;;;7.95;70.30;100031.56;5091716;28;20016;-46
2024/02/05 04:19:51;;;;;;;15.98;9.50;;;;;;;7.87;69.50;100031.44;5108591;28;20558;-47
2024/02/05 04:22:16;;;;;;;13.90;9.38;;;;;;;7.80;70.47;100032.03;5092749;28;20060;-47
2024/02/05 04:24:42;;;;;;;15.93;14.00;;;;;;;7.87;70.69;100039.28;5108485;28;20520;-47
2024/02/05 04:27:08;;;;;;;25.13;10.73;;;;;;;8.00;71.15;100035.34;5092794;28;20111;-47
2024/02/05 04:29:34;;;;;;;16.83;10.48;;;;;;;8.09;70.55;100032.78;5091412;28;20026;-46
2024/02/05 04:32:00;;;;;;;15.70;10.40;;;;;;;8.20;70.55;100037.78;5092695;28;20094;-47
2024/02/05 04:34:27;;;;;;;21.77;10.70;;;;;;;8.23;70.14;100039.28;5092674;28;20032;-46
2024/02/05 04:36:53;;;;;;;19.15;12.95;;;;;;;8.06;70.59;100033.91;5091211;28;20035;-46
2024/02/05 04:39:19;;;;;;;14.52;9.48;;;;;;;8.22;71.34;100032.41;5091262;28;20028;-47
2024/02/05 04:41:47;;;;;;;16.38;9.73;;;;;;;8.43;71.02;100045.19;5092537;28;20020;-46
2024/02/05 04:44:14;;;;;;;14.10;8.82;;;;;;;8.61;70.46;100040.72;5092381;28;20085;-46
2024/02/05 04:46:40;;;;;;;14.75;9.48;;;;;;;8.74;70.16;100040.31;5092072;28;20536;-46
2024/02/05 04:49:06;;;;;;;17.45;9.00;;;;;;;8.88;70.38;100041.56;5092457;28;20027;-46
2024/02/05 04:51:31;;;;;;;16.80;9.32;;;;;;;8.95;69.66;100038.16;5107957;28;20044;-46
2024/02/05 04:53:58;;;;;;;14.10;9.15;;;;;;;9.00;69.44;100038.50;5092348;28;20130;-46
2024/02/05 04:56:24;;;;;;;13.18;9.23;;;;;;;9.03;68.96;100026.06;5107776;28;20028;-46
2024/02/05 04:58:51;;;;;;;14.60;9.32;;;;;;;9.07;68.68;100035.25;5092270;28;20380;-46
2024/02/05 05:01:17;;;;;;;18.83;11.27;;;;;;;9.06;68.68;100033.63;5092127;28;20038;-46
2024/02/05 05:03:43;;;;;;;18.00;10.02;;;;;;;9.08;68.87;100031.66;5092116;28;20027;-46
2024/02/05 05:06:08;;;;;;;17.95;13.15;;;;;;;9.13;68.63;100037.22;5090578;28;20028;-46
2024/02/05 05:08:34;;;;;;;16.73;11.75;;;;;;;9.12;68.53;100038.22;5092058;28;20016;-46
2024/02/05 05:11:00;;;;;;;15.15;9.18;;;;;;;9.12;68.43;100027.75;5090725;28;20023;-46
2024/02/05 05:13:26;;;;;;;18.83;10.55;;;;;;;9.19;68.53;100026.13;5107703;28;20106;-46
2024/02/05 05:15:52;;;;;;;14.20;11.65;;;;;;;9.17;68.08;100033.31;5090773;28;20078;-46
2024/02/05 05:18:18;;;;;;;19.05;10.95;;;;;;;9.03;67.89;100026.06;5091970;28;20016;-46
2024/02/05 05:20:43;;;;;;;19.05;10.38;;;;;;;8.93;68.26;100027.03;5090622;28;20038;-46
2024/02/05 05:23:09;;;;;;;18.15;12.18;;;;;;;8.70;68.07;100020.66;5092118;28;20028;-46
2024/02/05 05:25:36;;;;;;;12.40;8.80;;;;;;;8.58;69.32;100013.06;5090561;28;20058;-46
2024/02/05 05:28:06;;;;;;;21.35;9.07;;;;;;;8.63;69.52;100011.78;5107574;28;20061;-45
2024/02/05 05:30:32;;;;;;;22.70;11.93;;;;;;;8.67;69.63;100013.13;5091871;28;20027;-46
2024/02/05 05:32:58;;;;;;;22.08;10.20;;;;;;;8.67;70.08;100006.09;5090583;28;20081;-46
2024/02/05 05:35:23;;;;;;;23.60;9.10;;;;;;;8.68;69.79;100012.16;5091680;28;20032;-46
2024/02/05 05:37:49;;;;;;;14.77;8.52;;;;;;;8.66;69.34;100016.72;5091765;28;20428;-45
2024/02/05 05:40:15;;;;;;;20.13;13.50;;;;;;;8.60;69.24;100020.78;5091688;28;20079;-46
2024/02/05 05:42:41;;;;;;;12.43;7.28;;;;;;;8.57;69.55;100011.44;5091824;28;20070;-45
2024/02/05 05:45:07;;;;;;;15.32;7.43;;;;;;;8.56;69.59;100015.03;5107404;28;20031;-45
2024/02/05 05:47:33;;;;;;;12.90;9.55;;;;;;;8.54;69.39;100019.59;5107048;28;20548;-45
2024/02/05 05:49:59;;;;;;;14.48;8.40;;;;;;;8.41;69.31;100013.97;5107336;28;20055;-46
2024/02/05 05:52:25;;;;;;;10.75;7.75;;;;;;;8.27;69.49;100025.75;5091626;28;20024;-45
2024/02/05 05:54:51;;;;;;;18.65;8.60;;;;;;;8.11;70.06;100020.38;5090375;28;20016;-45
2024/02/05 05:57:16;;;;;;;13.23;8.85;;;;;;;8.02;70.40;100019.50;5091569;28;20547;-45
2024/02/05 05:59:42;;;;;;;22.92;8.88;;;;;;;7.97;71.53;100019.97;5107289;28;20016;-45
2024/02/05 06:02:08;;;;;;;15.05;12.45;;;;;;;8.05;71.53;100023.59;5091562;28;20398;-45
2024/02/05 06:04:36;;;;;;;14.15;8.45;;;;;;;8.18;71.96;100016.19;5091562;28;20024;-45
2024/02/05 06:07:06;;;;;;;13.23;8.88;;;;;;;8.37;71.93;100007.34;5090530;28;20456;-46
2024/02/05 06:09:33;;;;;;;17.02;9.27;;;;;;;8.38;71.21;100017.66;5090345;28;20016;-45
2024/02/05 06:11:58;;;;;;;21.50;15.95;;;;;;;8.16;71.21;100023.38;5107154;28;20035;-45
2024/02/05 06:14:24;;;;;;;11.15;7.55;;;;;;;8.13;71.66;100021.91;5091446;28;20398;-46
2024/02/05 06:16:50;;;;;;;16.98;8.80;;;;;;;8.26;72.08;100021.50;5091406;28;20063;-45
2024/02/05 06:19:16;;;;;;;14.75;7.18;;;;;;;8.40;72.01;100007.84;5095195;28;20028;-45
2024/02/05 06:21:41;;;;;;;12.10;7.47;;;;;;;8.46;71.38;100027.38;5095199;28;20017;-45
2024/02/05 06:24:07;;;;;;;28.58;12.77;;;;;;;8.34;71.15;100031.19;5095204;28;20024;-45
2024/02/05 06:26:33;;;;;;;14.30;8.20;;;;;;;8.27;71.66;100024.91;5095075;28;20063;-45
2024/02/05 06:28:58;;;;;;;14.43;6.80;;;;;;;8.32;71.86;100028.72;5095099;28;20488;-45
2024/02/05 06:31:24;;;;;;;21.83;18.98;;;;;;;8.40;71.75;100023.56;5093718;28;20024;-45
2024/02/05 06:33:50;;;;;;;12.07;6.95;;;;;;;8.49;71.74;100028.88;5093610;28;20024;-45
2024/02/05 06:36:16;;;;;;;10.75;6.45;;;;;;;8.45;71.43;100031.00;5094848;28;20020;-46
2024/02/05 06:38:41;;;;;;;25.40;16.27;;;;;;;8.47;71.48;100028.19;5110573;28;20024;-45
2024/02/05 06:41:08;;;;;;;30.08;20.88;;;;;;;8.48;71.20;100024.63;5093529;28;20060;-45
2024/02/05 06:43:36;;;;;;;16.95;8.10;;;;;;;8.33;70.90;100030.38;5094797;28;20013;-45
2024/02/05 06:46:03;;;;;;;34.38;12.65;;;;;;;8.20;71.53;100035.19;5094705;28;20053;-45
2024/02/05 06:48:31;;;;;;;37.25;12.60;;;;;;;8.32;71.80;100031.34;5094388;28;20043;-48
2024/02/05 06:50:57;;;;;;;38.92;20.20;;;;;;;8.35;71.52;100032.81;5094633;28;20036;-48
2024/02/05 06:53:23;;;;;;;19.98;10.45;;;;;;;8.35;71.46;100030.22;5094657;28;20086;-47
2024/02/05 06:55:49;;;;;;;34.38;10.25;;;;;;;8.31;71.39;100034.09;5094520;28;20574;-47
2024/02/05 06:58:15;;;;;;;62.50;15.80;;;;;;;8.39;71.85;100027.16;5093198;28;20024;-48
2024/02/05 07:00:41;;;;;;;35.08;14.23;;;;;;;8.48;71.66;100024.63;5094423;28;20517;-48
2024/02/05 07:03:06;;;;;;;21.13;11.20;;;;;;;8.43;71.38;100027.72;5093074;28;20176;-48
2024/02/05 07:05:32;;;;;;;24.17;12.13;;;;;;;8.44;71.50;100039.00;5092995;28;20506;-48
2024/02/05 07:07:58;;;;;;;41.03;20.30;;;;;;;8.34;71.51;100029.41;5093030;28;20028;-48
2024/02/05 07:10:24;;;;;;;31.70;11.20;;;;;;;8.48;72.01;100030.66;5094496;28;20498;-48
2024/02/05 07:12:50;;;;;;;66.20;46.10;;;;;;;8.60;71.62;100033.84;5092891;28;20035;-48
2024/02/05 07:15:16;;;;;;;43.75;26.88;;;;;;;8.63;71.74;100036.16;5094357;28;20387;-48
2024/02/05 07:17:43;;;;;;;47.80;42.70;;;;;;;8.64;71.02;100029.97;5092832;28;20030;-48
2024/02/05 07:20:09;;;;;;;79.70;71.63;;;;;;;8.60;71.31;100039.09;5093986;28;20026;-48
2024/02/05 07:22:35;;;;;;;30.95;24.70;;;;;;;8.61;71.40;100035.47;5093946;28;20028;-48
2024/02/05 07:25:01;;;;;;;19.98;9.27;;;;;;;8.74;71.08;100035.91;5092737;28;20035;-48
2024/02/05 07:27:27;;;;;;;15.35;8.18;;;;;;;8.74;70.36;100040.31;5109668;28;20024;-48
2024/02/05 07:29:54;;;;;;;21.20;10.88;;;;;;;8.57;70.32;100037.63;5093390;28;20024;-48
2024/02/05 07:32:20;;;;;;;16.35;7.70;;;;;;;8.57;70.50;100040.22;5093910;28;20054;-48
2024/02/05 07:34:47;;;;;;;18.02;9.20;;;;;;;8.61;70.24;100038.09;5093848;28;20020;-48
2024/02/05 07:37:12;;;;;;;18.98;10.75;;;;;;;8.58;69.96;100036.63;5093725;28;20077;-48
2024/02/05 07:39:39;;;;;;;14.65;9.18;;;;;;;8.49;69.96;100039.34;5093744;28;20020;-48
2024/02/05 07:42:05;;;;;;;12.57;7.85;;;;;;;8.45;70.29;100048.47;5109380;28;20403;-48
2024/02/05 07:44:31;;;;;;;18.50;8.85;;;;;;;8.24;70.22;100039.13;5092364;28;20077;-48
2024/02/05 07:46:57;;;;;;;16.90;9.43;;;;;;;8.22;71.29;100043.69;5109041;28;20044;-48
2024/02/05 07:49:25;;;;;;;21.75;8.30;;;;;;;8.28;70.92;100042.28;5093528;28;20024;-48
2024/02/05 07:51:52;;;;;;;15.88;8.48;;;;;;;8.33;70.98;100035.63;5109155;28;20084;-48
2024/02/05 07:54:19;;;;;;;16.85;7.40;;;;;;;8.30;70.09;100038.53;5093364;28;20113;-48
2024/02/05 07:56:45;;;;;;;31.33;21.00;;;;;;;8.26;70.49;100036.38;5093346;28;20016;-48
2024/02/05 07:59:12;;;;;;;18.77;9.35;;;;;;;8.30;70.72;100037.72;5092328;28;20623;-48
2024/02/05 08:01:38;;;;;;;16.20;7.50;;;;;;;8.47;71.05;100036.91;5093265;28;20020;-48
2024/02/05 08:04:05;;;;;;;17.27;6.82;;;;;;;8.63;70.86;100033.53;5108942;28;20107;-48
2024/02/05 08:06:32;;;;;;;24.05;18.05;;;;;;;8.84;70.48;100035.81;5093172;28;20020;-48
2024/02/05 08:08:59;;;;;;;23.83;19.98;;;;;;;9.00;70.21;100032.44;5093080;28;20025;-48
2024/02/05 08:11:25;;;;;;;19.17;14.63;;;;;;;9.13;69.25;100030.19;5093084;28;20055;-48
2024/02/05 08:13:51;;;;;;;18.45;16.35;;;;;;;9.26;68.88;100026.34;5093121;28;20108;-48
2024/02/05 08:16:17;;;;;;;16.25;8.30;;;;;;;9.15;67.62;100030.84;5091617;28;20067;-48
2024/02/05 08:18:43;;;;;;;16.58;8.13;;;;;;;8.93;67.97;100021.78;5092981;28;20439;-48
2024/02/05 08:21:10;;;;;;;24.50;15.75;;;;;;;8.87;68.72;100019.75;5092925;28;20031;-48
2024/02/05 08:23:36;;;;;;;15.02;10.55;;;;;;;8.99;69.16;100021.16;5091551;28;20024;-48
2024/02/05 08:26:02;;;;;;;24.85;16.70;;;;;;;9.03;68.18;100024.25;5092757;28;20103;-48
2024/02/05 08:28:28;;;;;;;15.43;11.48;;;;;;;8.92;68.03;100027.16;5074755;28;20027;-48
2024/02/05 08:30:55;;;;;;;31.55;22.48;;;;;;;8.75;68.45;100029.72;5092735;28;20528;-48
2024/02/05 08:33:21;;;;;;;21.58;15.50;;;;;;;8.90;69.23;100024.69;5091339;28;20020;-48
2024/02/05 08:35:46;;;;;;;21.10;15.45;;;;;;;9.09;69.00;100021.00;5091052;28;20039;-48
2024/02/05 08:38:12;;;;;;;15.57;12.48;;;;;;;9.24;68.38;100021.25;5092562;28;20062;-48
2024/02/05 08:40:38;;;;;;;20.77;9.88;;;;;;;9.34;67.68;100026.34;5092120;28;20020;-48
2024/02/05 08:43:05;;;;;;;19.67;8.50;;;;;;;9.44;67.43;100020.97;5092154;28;20024;-48
2024/02/05 08:45:31;;;;;;;22.63;8.32;;;;;;;9.56;67.05;100025.75;5074341;28;20039;-48
2024/02/05 08:47:59;;;;;;;23.17;8.52;;;;;;;9.74;67.09;100023.00;5092179;28;20046;-48
2024/02/05 08:50:31;;;;;;;16.25;7.95;;;;;;;9.84;66.56;100014.16;5092324;28;20023;-48
2024/02/05 08:52:57;;;;;;;14.65;8.93;;;;;;;9.91;66.35;100008.09;5092383;28;20055;-48
2024/02/05 08:55:23;;;;;;;21.95;8.25;;;;;;;9.85;66.25;100011.38;5092163;28;20024;-48
2024/02/05 08:57:50;;;;;;;19.08;8.07;;;;;;;9.94;65.75;100012.19;5092334;28;20020;-48
2024/02/05 09:00:17;;;;;;;15.25;7.68;;;;;;;10.00;65.50;100007.13;5092248;28;20023;-48
2024/02/05 09:02:48;;;;;;;20.73;7.63;;;;;;;9.98;64.93;100013.53;5092144;28;20019;-48
2024/02/05 09:05:15;;;;;;;15.27;7.97;;;;;;;9.78;64.65;100008.59;5090969;28;20113;-48
2024/02/05 09:07:40;;;;;;;16.42;9.25;;;;;;;9.62;64.94;100003.34;5090927;28;20477;-48
2024/02/05 09:10:09;;;;;;;22.60;9.13;;;;;;;9.45;64.93;99999.84;5092064;28;20107;-48
2024/02/05 09:12:35;;;;;;;22.60;8.90;;;;;;;9.38;65.82;99997.06;5107751;28;20031;-48
2024/02/05 09:15:03;;;;;;;15.25;7.05;;;;;;;9.48;66.01;100006.59;5092010;28;20486;-48
2024/02/05 09:17:29;;;;;;;18.52;8.27;;;;;;;9.36;65.35;99999.00;5091982;28;20034;-48
2024/02/05 09:19:55;;;;;;;18.58;9.05;;;;;;;9.30;65.89;100001.47;5073882;28;20032;-48
2024/02/05 09:22:21;;;;;;;23.80;9.65;;;;;;;9.41;66.27;99998.53;5107488;28;20520;-48
2024/02/05 09:24:47;;;;;;;11.30;7.43;;;;;;;9.63;65.98;99996.28;5090693;28;20024;-48
2024/02/05 09:27:13;;;;;;;22.15;9.23;;;;;;;9.91;65.10;99999.41;5091888;28;20509;-48
2024/02/05 09:29:39;;;;;;;17.50;8.90;;;;;;;10.12;64.70;99989.25;5091877;28;20020;-48
2024/02/05 09:32:07;;;;;;;20.23;11.00;;;;;;;10.09;63.68;99983.53;5092073;28;20439;-48
2024/02/05 09:34:36;;;;;;;18.95;11.10;;;;;;;9.87;63.49;99992.88;5091829;28;20120;-48
2024/02/05 09:37:02;;;;;;;15.63;9.50;;;;;;;9.62;64.05;99990.22;5091730;28;20012;-48
2024/02/05 09:39:29;;;;;;;21.92;8.75;;;;;;;9.68;64.55;99993.97;5107426;28;20056;-48
2024/02/05 09:42:01;;;;;;;22.90;9.38;;;;;;;9.70;64.34;99987.63;5091817;28;20520;-48
2024/02/05 09:44:28;;;;;;;19.60;9.00;;;;;;;9.79;64.34;99988.44;5091818;28;20082;-48
2024/02/05 09:46:55;;;;;;;27.38;15.23;;;;;;;9.94;64.38;99988.59;5091364;28;20409;-49
2024/02/05 09:49:22;;;;;;;21.27;9.18;;;;;;;10.16;63.83;99985.31;5091737;28;20062;-49
2024/02/05 09:51:48;;;;;;;19.65;8.07;;;;;;;10.32;62.99;99981.91;5091681;28;20405;-48
2024/02/05 09:54:15;;;;;;;13.63;8.07;;;;;;;10.40;62.17;99975.78;5111109;28;20107;-48
2024/02/05 09:56:42;;;;;;;15.48;8.55;;;;;;;10.34;61.96;99969.44;5094321;28;20028;-48
2024/02/05 09:59:11;;;;;;;11.45;8.02;;;;;;;10.25;61.90;99977.44;5095656;28;20031;-49
2024/02/05 10:01:38;;;;;;;26.27;13.88;;;;;;;10.09;62.17;99976.47;5095596;28;20055;-49
2024/02/05 10:04:07;;;;;;;20.60;9.90;;;;;;;9.99;62.62;99979.25;5094260;28;20489;-48
2024/02/05 10:06:37;;;;;;;16.88;8.20;;;;;;;9.97;62.94;99970.72;5094453;28;20034;-49
2024/02/05 10:09:04;;;;;;;15.35;7.45;;;;;;;9.96;63.42;99978.75;5077808;28;20016;-49
2024/02/05 10:11:33;;;;;;;18.52;10.85;;;;;;;10.10;63.30;99967.63;5095416;28;20513;-49
2024/02/05 10:13:59;;;;;;;25.90;8.43;;;;;;;10.11;62.88;99971.88;5095426;28;20028;-49
2024/02/05 10:16:25;;;;;;;19.80;12.63;;;;;;;10.12;62.88;99964.81;5095195;28;20489;-49
2024/02/05 10:18:51;;;;;;;15.85;7.63;;;;;;;10.29;62.64;99973.50;5095305;28;20016;-46
2024/02/05 10:21:17;;;;;;;15.43;7.93;;;;;;;10.22;62.37;99970.69;5095244;28;20024;-47
2024/02/05 10:23:54;;;;;;;13.95;7.40;;;;;;;10.11;62.39;99977.13;5110840;28;20024;-47
2024/02/05 10:26:22;;;;;;;19.77;10.85;;;;;;;10.09;62.85;99973.84;5095131;28;20033;-47
2024/02/05 10:28:48;;;;;;;19.10;8.40;;;;;;;10.21;62.85;99971.69;5095155;28;20111;-47
2024/02/05 10:31:17;;;;;;;16.40;12.13;;;;;;;10.45;62.38;99964.81;5110722;28;20450;-47
2024/02/05 10:33:44;;;;;;;17.95;7.82;;;;;;;10.63;61.13;99975.09;5095043;28;20579;-49
2024/02/05 10:36:16;;;;;;;20.92;12.30;;;;;;;10.79;60.67;99970.59;5094958;28;20028;-49
2024/02/05 10:38:42;;;;;;;17.70;8.95;;;;;;;10.89;60.37;99970.41;5094976;28;20496;-49
2024/02/05 10:41:09;;;;;;;23.65;15.98;;;;;;;10.97;60.25;99966.94;5094894;28;20024;-49
2024/02/05 10:43:35;;;;;;;27.80;13.30;;;;;;;11.16;60.24;99965.69;5094717;28;20044;-49
2024/02/05 10:46:01;;;;;;;17.20;6.70;;;;;;;11.26;59.65;99962.84;5094822;28;20074;-49
2024/02/05 10:48:27;;;;;;;11.70;6.60;;;;;;;11.18;59.00;99963.69;5093291;28;20055;-49
2024/02/05 10:50:54;;;;;;;14.55;6.32;;;;;;;11.05;58.86;99966.88;5094664;28;20394;-49
2024/02/05 10:53:21;;;;;;;17.42;6.97;;;;;;;10.85;59.02;99953.34;5094622;28;20024;-49
2024/02/05 10:55:49;;;;;;;14.98;6.88;;;;;;;10.73;59.35;99949.47;5094420;28;20020;-50
2024/02/05 10:58:17;;;;;;;15.25;6.90;;;;;;;10.63;59.70;99939.16;5094535;28;20032;-49
2024/02/05 11:00:43;;;;;;;15.20;6.75;;;;;;;10.51;60.13;99936.06;5094519;28;20033;-50
2024/02/05 11:03:17;;;;;;;12.48;7.45;;;;;;;10.46;60.45;99937.56;5093160;28;20024;-49
2024/02/05 11:05:51;;;;;;;21.65;6.80;;;;;;;10.57;60.67;99937.22;5092211;28;20024;-49
2024/02/05 11:08:21;;;;;;;16.08;6.95;;;;;;;10.80;60.09;99932.03;5094409;28;20028;-49
2024/02/05 11:10:51;;;;;;;367.38;327.08;;;;;;;10.97;59.92;99927.53;5094256;28;20032;-50
2024/02/05 11:13:31;;;;;;;286.35;204.90;;;;;;;10.88;59.13;99928.53;5094231;28;20020;-49
2024/02/05 11:15:59;;;;;;;1537.43;827.63;;;;;;;10.55;59.87;99934.75;5094159;28;20060;-49